JBU1760 MKJP-KJFK
Flight info
| Callsign | JBU1760 |
|---|---|
| Flight time | N/A |
| Altitude | 34000 |
| Route | N0463F340 LEXUV5 RADOK UT172 BEMOL UL417 LENAX UL795 ALTIB UM779 ZEUSS Y217 OCTAL/N0461F360 DCT MATLK Q87 ZERBO/N0460F350 Q87 JROSS/N0447F370 DCT JOHAR Q109 DFENC DCT SAWED Q108 BYSEL DCT RADDS DCT SIE CAMRN5 |
| Aircraft | A320/M-SDE3FGHIRWY/LB1 |
Departure
| Time | 2026-05-07 22:48 |
|---|---|
| Airport | Norman Manley International Airport (MKJP) |
Arrival
| Time | N/A |
|---|---|
| Airport | John F. Kennedy International Airport (KJFK) |
| Time | Latitude | Longitude | Altitude | Speed | Heading |
|---|---|---|---|---|---|
| 2026-05-07 22:33 | 17.93632 | -76.77945 | 32 ft | 0 kts | 337° |
| 2026-05-07 22:36 | 17.93630 | -76.77944 | 32 ft | 1 kts | 337° |
| 2026-05-07 22:36 | 17.93617 | -76.77939 | 32 ft | 3 kts | 345° |
| 2026-05-07 22:37 | 17.93598 | -76.77937 | 32 ft | 3 kts | 3° |
| 2026-05-07 22:37 | 17.93579 | -76.77941 | 32 ft | 3 kts | 21° |
| 2026-05-07 22:37 | 17.93561 | -76.77951 | 32 ft | 3 kts | 33° |
| 2026-05-07 22:37 | 17.93545 | -76.77962 | 32 ft | 3 kts | 29° |
| 2026-05-07 22:38 | 17.93527 | -76.77971 | 32 ft | 3 kts | 24° |
| 2026-05-07 22:38 | 17.93508 | -76.77979 | 32 ft | 3 kts | 24° |
| 2026-05-07 22:38 | 17.93489 | -76.77986 | 32 ft | 3 kts | 7° |
| 2026-05-07 22:38 | 17.93468 | -76.77985 | 32 ft | 3 kts | 349° |
| 2026-05-07 22:39 | 17.93449 | -76.77978 | 32 ft | 3 kts | 331° |
| 2026-05-07 22:39 | 17.93432 | -76.77966 | 32 ft | 3 kts | 316° |
| 2026-05-07 22:39 | 17.93419 | -76.77949 | 32 ft | 3 kts | 304° |
| 2026-05-07 22:39 | 17.93409 | -76.77930 | 32 ft | 3 kts | 294° |
| 2026-05-07 22:40 | 17.93405 | -76.77921 | 32 ft | 0 kts | 294° |
| 2026-05-07 22:41 | 17.93406 | -76.77924 | 32 ft | 2 kts | 294° |
| 2026-05-07 22:41 | 17.93414 | -76.77944 | 32 ft | 4 kts | 288° |
| 2026-05-07 22:41 | 17.93428 | -76.77986 | 32 ft | 8 kts | 292° |
| 2026-05-07 22:42 | 17.93453 | -76.78048 | 32 ft | 11 kts | 292° |
| 2026-05-07 22:42 | 17.93486 | -76.78133 | 32 ft | 14 kts | 292° |
| 2026-05-07 22:42 | 17.93526 | -76.78233 | 32 ft | 15 kts | 293° |
| 2026-05-07 22:42 | 17.93565 | -76.78336 | 32 ft | 15 kts | 292° |
| 2026-05-07 22:43 | 17.93603 | -76.78435 | 32 ft | 15 kts | 292° |
| 2026-05-07 22:43 | 17.93643 | -76.78535 | 32 ft | 15 kts | 292° |
| 2026-05-07 22:43 | 17.93681 | -76.78636 | 32 ft | 15 kts | 291° |
| 2026-05-07 22:43 | 17.93721 | -76.78738 | 32 ft | 15 kts | 292° |
| 2026-05-07 22:44 | 17.93763 | -76.78842 | 32 ft | 16 kts | 293° |
| 2026-05-07 22:44 | 17.93804 | -76.78952 | 32 ft | 17 kts | 291° |
| 2026-05-07 22:44 | 17.93851 | -76.79071 | 32 ft | 18 kts | 295° |
| 2026-05-07 22:44 | 17.93891 | -76.79197 | 32 ft | 19 kts | 290° |
| 2026-05-07 22:45 | 17.93946 | -76.79329 | 32 ft | 20 kts | 296° |
| 2026-05-07 22:45 | 17.94004 | -76.79463 | 32 ft | 18 kts | 291° |
| 2026-05-07 22:45 | 17.94043 | -76.79564 | 32 ft | 14 kts | 292° |
| 2026-05-07 22:45 | 17.94075 | -76.79649 | 32 ft | 11 kts | 288° |
| 2026-05-07 22:46 | 17.94089 | -76.79729 | 32 ft | 12 kts | 273° |
| 2026-05-07 22:46 | 17.94096 | -76.79817 | 32 ft | 12 kts | 276° |
| 2026-05-07 22:46 | 17.94090 | -76.79888 | 32 ft | 8 kts | 222° |
| 2026-05-07 22:46 | 17.94038 | -76.79914 | 32 ft | 7 kts | 207° |
| 2026-05-07 22:47 | 17.94014 | -76.79908 | 32 ft | 4 kts | 119° |
| 2026-05-07 22:47 | 17.94012 | -76.79901 | 32 ft | 0 kts | 110° |
| 2026-05-07 22:47 | 17.94002 | -76.79875 | 32 ft | 21 kts | 110° |
| 2026-05-07 22:48 | 17.93870 | -76.79526 | 32 ft | 77 kts | 112° |
| 2026-05-07 22:48 | 17.93603 | -76.78848 | 33 ft | 124 kts | 109° |
| 2026-05-07 22:48 | 17.93242 | -76.77892 | 152 ft | 148 kts | 109° |
| 2026-05-07 22:48 | 17.92849 | -76.76901 | 788 ft | 148 kts | 112° |
| 2026-05-07 22:49 | 17.92402 | -76.75891 | 1177 ft | 159 kts | 121° |
| 2026-05-07 22:49 | 17.91562 | -76.75059 | 1421 ft | 180 kts | 152° |
| 2026-05-07 22:49 | 17.90247 | -76.74891 | 1656 ft | 207 kts | 187° |
| 2026-05-07 22:49 | 17.88852 | -76.75478 | 2005 ft | 224 kts | 202° |
| 2026-05-07 22:50 | 17.87396 | -76.76217 | 2403 ft | 237 kts | 201° |
| 2026-05-07 22:50 | 17.85864 | -76.76887 | 3081 ft | 239 kts | 199° |
| 2026-05-07 22:50 | 17.84330 | -76.77504 | 3777 ft | 240 kts | 199° |
| 2026-05-07 22:50 | 17.82845 | -76.78327 | 4458 ft | 244 kts | 219° |
| 2026-05-07 22:51 | 17.81886 | -76.79781 | 5151 ft | 247 kts | 252° |
| 2026-05-07 22:51 | 17.81821 | -76.81564 | 5865 ft | 247 kts | 285° |
| 2026-05-07 22:51 | 17.82509 | -76.83201 | 6610 ft | 245 kts | 298° |
| 2026-05-07 22:51 | 17.83304 | -76.84798 | 7263 ft | 248 kts | 295° |
| 2026-05-07 22:52 | 17.83986 | -76.86468 | 7906 ft | 250 kts | 290° |
| 2026-05-07 22:52 | 17.84648 | -76.88165 | 8531 ft | 253 kts | 298° |
| 2026-05-07 22:52 | 17.85764 | -76.89580 | 9135 ft | 255 kts | 325° |
| 2026-05-07 22:52 | 17.87405 | -76.90271 | 9706 ft | 258 kts | 353° |
| 2026-05-07 22:53 | 17.89203 | -76.90285 | 10017 ft | 264 kts | 4° |
| 2026-05-07 22:53 | 17.91026 | -76.90133 | 10024 ft | 263 kts | 4° |
| 2026-05-07 22:53 | 17.92862 | -76.90023 | 10017 ft | 263 kts | 2° |
| 2026-05-07 22:53 | 17.94693 | -76.89995 | 10012 ft | 263 kts | 0° |
| 2026-05-07 22:54 | 17.96525 | -76.89984 | 10008 ft | 263 kts | 1° |
| 2026-05-07 22:54 | 17.98361 | -76.89944 | 10006 ft | 263 kts | 2° |
| 2026-05-07 22:54 | 18.00190 | -76.89884 | 10005 ft | 263 kts | 2° |
| 2026-05-07 22:54 | 18.02022 | -76.89831 | 10004 ft | 263 kts | 1° |
| 2026-05-07 22:55 | 18.03854 | -76.89791 | 10004 ft | 263 kts | 1° |
| 2026-05-07 22:55 | 18.05686 | -76.89752 | 10003 ft | 263 kts | 1° |
| 2026-05-07 22:55 | 18.07498 | -76.89706 | 10003 ft | 263 kts | 1° |
| 2026-05-07 22:55 | 18.08638 | -76.89675 | 10003 ft | 263 kts | 1° |
| 2026-05-07 22:56 | 18.09153 | -76.89662 | 10003 ft | 263 kts | 1° |
| 2026-05-07 22:56 | 18.10986 | -76.89616 | 10003 ft | 263 kts | 1° |
| 2026-05-07 22:56 | 18.11649 | -76.89600 | 10003 ft | 263 kts | 1° |
| 2026-05-07 22:56 | 18.13482 | -76.89556 | 10002 ft | 264 kts | 1° |
| 2026-05-07 22:57 | 18.15304 | -76.89511 | 10016 ft | 269 kts | 1° |
| 2026-05-07 22:57 | 18.17250 | -76.89462 | 10200 ft | 290 kts | 1° |
| 2026-05-07 22:57 | 18.19333 | -76.89410 | 10398 ft | 308 kts | 1° |
| 2026-05-07 22:57 | 18.21531 | -76.89354 | 10641 ft | 324 kts | 1° |
| 2026-05-07 22:58 | 18.23831 | -76.89296 | 10895 ft | 337 kts | 1° |
| 2026-05-07 22:58 | 18.26227 | -76.89235 | 11116 ft | 351 kts | 1° |
| 2026-05-07 22:58 | 18.28715 | -76.89173 | 11311 ft | 365 kts | 1° |
| 2026-05-07 22:58 | 18.31285 | -76.89110 | 11677 ft | 372 kts | 1° |
| 2026-05-07 22:59 | 18.33888 | -76.89046 | 12140 ft | 376 kts | 2° |
| 2026-05-07 22:59 | 18.36516 | -76.88981 | 12604 ft | 379 kts | 2° |
| 2026-05-07 22:59 | 18.39162 | -76.88916 | 13098 ft | 381 kts | 3° |
| 2026-05-07 22:59 | 18.41818 | -76.88868 | 13626 ft | 382 kts | 1° |
| 2026-05-07 23:00 | 18.44466 | -76.89160 | 14167 ft | 384 kts | 352° |
| 2026-05-07 23:00 | 18.47060 | -76.89698 | 14702 ft | 384 kts | 351° |
| 2026-05-07 23:00 | 18.49669 | -76.90316 | 15216 ft | 385 kts | 350° |
| 2026-05-07 23:00 | 18.52285 | -76.90952 | 15676 ft | 386 kts | 350° |
| 2026-05-07 23:01 | 18.54917 | -76.91569 | 16120 ft | 387 kts | 351° |
| 2026-05-07 23:01 | 18.57555 | -76.92157 | 16559 ft | 388 kts | 351° |
| 2026-05-07 23:01 | 18.60209 | -76.92734 | 16987 ft | 390 kts | 352° |
| 2026-05-07 23:01 | 18.62871 | -76.93316 | 17405 ft | 391 kts | 351° |
| 2026-05-07 23:02 | 18.65538 | -76.93908 | 17815 ft | 392 kts | 351° |
| 2026-05-07 23:02 | 18.68218 | -76.94511 | 18218 ft | 393 kts | 351° |
| 2026-05-07 23:02 | 18.70862 | -76.95107 | 18605 ft | 394 kts | 351° |
| 2026-05-07 23:02 | 18.73581 | -76.95718 | 18990 ft | 395 kts | 351° |
| 2026-05-07 23:03 | 18.76240 | -76.96313 | 19355 ft | 396 kts | 351° |
| 2026-05-07 23:03 | 18.78948 | -76.96918 | 19720 ft | 397 kts | 351° |
| 2026-05-07 23:03 | 18.81654 | -76.97523 | 20057 ft | 399 kts | 351° |
| 2026-05-07 23:03 | 18.84384 | -76.98136 | 20360 ft | 401 kts | 351° |
| 2026-05-07 23:04 | 18.87118 | -76.98749 | 20658 ft | 403 kts | 351° |
| 2026-05-07 23:04 | 18.89872 | -76.99368 | 20943 ft | 405 kts | 351° |
| 2026-05-07 23:04 | 18.92633 | -76.99990 | 21222 ft | 407 kts | 351° |
| 2026-05-07 23:04 | 18.95421 | -77.00617 | 21494 ft | 409 kts | 350° |
| 2026-05-07 23:05 | 18.98212 | -77.01245 | 21758 ft | 411 kts | 350° |
| 2026-05-07 23:05 | 19.01018 | -77.01876 | 22017 ft | 413 kts | 350° |
| 2026-05-07 23:05 | 19.03837 | -77.02510 | 22266 ft | 415 kts | 350° |
| 2026-05-07 23:05 | 19.06677 | -77.03149 | 22512 ft | 417 kts | 350° |
| 2026-05-07 23:06 | 19.09519 | -77.03788 | 22751 ft | 419 kts | 350° |
| 2026-05-07 23:06 | 19.12383 | -77.04434 | 22986 ft | 421 kts | 350° |
| 2026-05-07 23:06 | 19.15252 | -77.05080 | 23213 ft | 423 kts | 350° |
| 2026-05-07 23:06 | 19.18143 | -77.05732 | 23433 ft | 425 kts | 349° |
| 2026-05-07 23:07 | 19.21035 | -77.06385 | 23673 ft | 426 kts | 349° |
| 2026-05-07 23:07 | 19.23940 | -77.07041 | 23900 ft | 428 kts | 349° |
| 2026-05-07 23:07 | 19.26817 | -77.07690 | 24113 ft | 429 kts | 349° |
| 2026-05-07 23:07 | 19.29739 | -77.08348 | 24317 ft | 431 kts | 349° |
| 2026-05-07 23:08 | 19.32678 | -77.09011 | 24527 ft | 433 kts | 349° |
| 2026-05-07 23:08 | 19.35586 | -77.09756 | 24726 ft | 435 kts | 346° |
| 2026-05-07 23:08 | 19.38538 | -77.10602 | 24924 ft | 436 kts | 346° |
| 2026-05-07 23:08 | 19.41476 | -77.11463 | 25121 ft | 438 kts | 346° |
| 2026-05-07 23:09 | 19.44417 | -77.12331 | 25316 ft | 439 kts | 346° |
| 2026-05-07 23:09 | 19.47368 | -77.13195 | 25525 ft | 440 kts | 346° |
| 2026-05-07 23:09 | 19.50334 | -77.14056 | 25732 ft | 441 kts | 346° |
| 2026-05-07 23:09 | 19.53310 | -77.14917 | 25936 ft | 442 kts | 346° |
| 2026-05-07 23:10 | 19.56288 | -77.15779 | 26141 ft | 443 kts | 346° |
| 2026-05-07 23:10 | 19.58260 | -77.16352 | 26274 ft | 444 kts | 346° |
| 2026-05-07 23:10 | 19.61239 | -77.17220 | 26474 ft | 445 kts | 345° |
| 2026-05-07 23:10 | 19.64231 | -77.18093 | 26677 ft | 446 kts | 345° |
| 2026-05-07 23:11 | 19.68202 | -77.19252 | 26930 ft | 447 kts | 345° |
| 2026-05-07 23:11 | 19.70231 | -77.19843 | 27061 ft | 448 kts | 345° |
| 2026-05-07 23:11 | 19.73211 | -77.20710 | 27248 ft | 449 kts | 345° |
| 2026-05-07 23:11 | 19.76234 | -77.21590 | 27432 ft | 450 kts | 345° |
| 2026-05-07 23:12 | 19.79246 | -77.22510 | 27614 ft | 451 kts | 343° |
| 2026-05-07 23:12 | 19.82231 | -77.23563 | 27790 ft | 452 kts | 341° |
| 2026-05-07 23:12 | 19.85194 | -77.24693 | 27966 ft | 453 kts | 341° |
| 2026-05-07 23:12 | 19.88158 | -77.25834 | 28140 ft | 454 kts | 341° |
| 2026-05-07 23:13 | 19.91140 | -77.26946 | 28307 ft | 455 kts | 341° |
| 2026-05-07 23:13 | 19.94147 | -77.28025 | 28478 ft | 456 kts | 342° |
| 2026-05-07 23:13 | 19.97165 | -77.29091 | 28645 ft | 457 kts | 342° |
| 2026-05-07 23:13 | 20.00185 | -77.30167 | 28809 ft | 458 kts | 342° |
| 2026-05-07 23:14 | 20.03202 | -77.31260 | 29025 ft | 457 kts | 341° |
| 2026-05-07 23:14 | 20.06172 | -77.32349 | 29256 ft | 456 kts | 341° |
| 2026-05-07 23:14 | 20.09170 | -77.33450 | 29486 ft | 456 kts | 341° |
| 2026-05-07 23:14 | 20.12165 | -77.34542 | 29719 ft | 455 kts | 341° |
| 2026-05-07 23:15 | 20.15197 | -77.35641 | 29947 ft | 454 kts | 341° |
| 2026-05-07 23:15 | 20.18157 | -77.36712 | 30177 ft | 453 kts | 341° |
| 2026-05-07 23:15 | 20.21143 | -77.37797 | 30400 ft | 453 kts | 341° |
| 2026-05-07 23:15 | 20.24125 | -77.38884 | 30631 ft | 452 kts | 341° |
| 2026-05-07 23:16 | 20.27102 | -77.39971 | 30857 ft | 451 kts | 341° |
| 2026-05-07 23:16 | 20.30072 | -77.41054 | 31088 ft | 450 kts | 341° |
| 2026-05-07 23:16 | 20.33034 | -77.42134 | 31309 ft | 450 kts | 341° |
| 2026-05-07 23:16 | 20.35994 | -77.43212 | 31529 ft | 449 kts | 341° |
| 2026-05-07 23:17 | 20.38949 | -77.44289 | 31749 ft | 449 kts | 340° |
| 2026-05-07 23:17 | 20.41901 | -77.45366 | 31960 ft | 448 kts | 340° |
| 2026-05-07 23:17 | 20.44854 | -77.46445 | 32179 ft | 447 kts | 340° |
| 2026-05-07 23:17 | 20.47795 | -77.47521 | 32387 ft | 447 kts | 340° |
| 2026-05-07 23:18 | 20.50704 | -77.48583 | 32597 ft | 446 kts | 340° |
| 2026-05-07 23:18 | 20.53640 | -77.49656 | 32802 ft | 445 kts | 340° |
| 2026-05-07 23:18 | 20.56567 | -77.50728 | 33002 ft | 445 kts | 340° |
| 2026-05-07 23:18 | 20.59504 | -77.51803 | 33207 ft | 444 kts | 341° |
| 2026-05-07 23:19 | 20.62430 | -77.52869 | 33449 ft | 443 kts | 340° |
| 2026-05-07 23:19 | 20.65347 | -77.53934 | 33710 ft | 441 kts | 340° |
| 2026-05-07 23:19 | 20.68246 | -77.54998 | 33938 ft | 441 kts | 340° |
| 2026-05-07 23:20 | 20.74043 | -77.57128 | 34005 ft | 440 kts | 340° |
| 2026-05-07 23:20 | 20.79798 | -77.59238 | 34005 ft | 439 kts | 340° |
| 2026-05-07 23:21 | 20.85576 | -77.61358 | 34006 ft | 439 kts | 339° |
| 2026-05-07 23:21 | 20.91351 | -77.63481 | 34007 ft | 438 kts | 339° |
| 2026-05-07 23:22 | 20.97118 | -77.65601 | 34011 ft | 438 kts | 339° |
| 2026-05-07 23:22 | 21.02870 | -77.67718 | 34010 ft | 437 kts | 339° |
| 2026-05-07 23:23 | 21.08626 | -77.69839 | 33988 ft | 438 kts | 340° |
| 2026-05-07 23:23 | 21.14391 | -77.71963 | 33978 ft | 439 kts | 340° |
| 2026-05-07 23:24 | 21.20186 | -77.74101 | 33979 ft | 440 kts | 340° |
| 2026-05-07 23:24 | 21.25993 | -77.76244 | 33982 ft | 442 kts | 340° |
| 2026-05-07 23:25 | 21.31820 | -77.78396 | 33981 ft | 443 kts | 340° |
| 2026-05-07 23:25 | 21.37662 | -77.80558 | 34012 ft | 444 kts | 340° |
| 2026-05-07 23:26 | 21.43468 | -77.82707 | 34069 ft | 444 kts | 340° |
| 2026-05-07 23:26 | 21.49316 | -77.84874 | 34067 ft | 444 kts | 340° |
| 2026-05-07 23:27 | 21.58084 | -77.88126 | 34062 ft | 443 kts | 340° |
| 2026-05-07 23:27 | 21.63909 | -77.90288 | 34028 ft | 443 kts | 340° |
| 2026-05-07 23:28 | 21.69711 | -77.92443 | 34006 ft | 443 kts | 340° |
| 2026-05-07 23:28 | 21.75545 | -77.94613 | 33995 ft | 443 kts | 340° |
| 2026-05-07 23:29 | 21.81387 | -77.96787 | 33993 ft | 443 kts | 340° |
| 2026-05-07 23:29 | 21.87228 | -77.98963 | 33996 ft | 443 kts | 340° |
| 2026-05-07 23:30 | 21.93062 | -78.01139 | 34002 ft | 444 kts | 340° |
| 2026-05-07 23:30 | 21.98860 | -78.03303 | 34011 ft | 444 kts | 340° |
| 2026-05-07 23:31 | 22.04701 | -78.05484 | 34020 ft | 444 kts | 340° |
| 2026-05-07 23:31 | 22.10546 | -78.07667 | 34029 ft | 444 kts | 340° |
| 2026-05-07 23:32 | 22.16376 | -78.09850 | 34038 ft | 444 kts | 340° |
| 2026-05-07 23:32 | 22.22179 | -78.12022 | 34048 ft | 444 kts | 340° |
| 2026-05-07 23:33 | 22.28020 | -78.14212 | 34058 ft | 444 kts | 340° |
| 2026-05-07 23:33 | 22.33847 | -78.16399 | 34069 ft | 444 kts | 340° |
| 2026-05-07 23:34 | 22.39697 | -78.18594 | 34067 ft | 444 kts | 340° |
| 2026-05-07 23:34 | 22.45539 | -78.20790 | 34067 ft | 444 kts | 340° |
| 2026-05-07 23:35 | 22.51338 | -78.22972 | 34068 ft | 444 kts | 340° |
| 2026-05-07 23:35 | 22.57168 | -78.25167 | 34070 ft | 443 kts | 340° |
| 2026-05-07 23:36 | 22.62999 | -78.27365 | 34064 ft | 443 kts | 340° |
| 2026-05-07 23:36 | 22.68824 | -78.29560 | 34043 ft | 443 kts | 340° |
| 2026-05-07 23:37 | 22.74662 | -78.31764 | 34027 ft | 443 kts | 340° |
| 2026-05-07 23:37 | 22.80493 | -78.33968 | 34017 ft | 443 kts | 340° |
| 2026-05-07 23:38 | 22.86284 | -78.36159 | 34014 ft | 443 kts | 340° |
| 2026-05-07 23:38 | 22.92112 | -78.38365 | 34014 ft | 443 kts | 340° |
| 2026-05-07 23:39 | 22.97934 | -78.40568 | 34019 ft | 443 kts | 340° |
| 2026-05-07 23:39 | 23.03762 | -78.42779 | 34024 ft | 443 kts | 340° |
| 2026-05-07 23:40 | 23.09587 | -78.44990 | 34028 ft | 443 kts | 340° |
| 2026-05-07 23:40 | 23.15407 | -78.47201 | 34032 ft | 443 kts | 340° |
| 2026-05-07 23:41 | 23.21215 | -78.49409 | 34044 ft | 443 kts | 340° |
| 2026-05-07 23:41 | 23.27035 | -78.51625 | 34059 ft | 443 kts | 340° |
| 2026-05-07 23:42 | 23.32858 | -78.53843 | 34067 ft | 443 kts | 340° |
| 2026-05-07 23:42 | 23.38690 | -78.56068 | 34068 ft | 444 kts | 340° |
| 2026-05-07 23:43 | 23.44515 | -78.58290 | 34069 ft | 443 kts | 340° |
| 2026-05-07 23:43 | 23.50336 | -78.60508 | 34070 ft | 443 kts | 339° |
| 2026-05-07 23:44 | 23.56144 | -78.62736 | 34047 ft | 443 kts | 339° |
| 2026-05-07 23:44 | 23.61928 | -78.64951 | 34005 ft | 443 kts | 339° |
| 2026-05-07 23:45 | 23.67759 | -78.67182 | 33986 ft | 443 kts | 339° |
| 2026-05-07 23:45 | 23.73584 | -78.69416 | 33985 ft | 443 kts | 339° |
| 2026-05-07 23:46 | 23.79408 | -78.71652 | 33996 ft | 443 kts | 339° |
| 2026-05-07 23:46 | 23.85198 | -78.73874 | 34012 ft | 443 kts | 339° |
| 2026-05-07 23:47 | 23.91015 | -78.76114 | 34028 ft | 443 kts | 339° |
| 2026-05-07 23:47 | 23.96833 | -78.78353 | 34038 ft | 443 kts | 339° |
| 2026-05-07 23:48 | 24.02452 | -78.81073 | 34033 ft | 441 kts | 329° |
| 2026-05-07 23:48 | 24.07732 | -78.84492 | 34048 ft | 441 kts | 327° |
| 2026-05-07 23:49 | 24.13002 | -78.87953 | 34059 ft | 441 kts | 328° |
| 2026-05-07 23:49 | 24.18309 | -78.91332 | 34069 ft | 441 kts | 328° |
| 2026-05-07 23:50 | 24.23572 | -78.94706 | 34067 ft | 441 kts | 328° |
| 2026-05-07 23:50 | 24.28865 | -78.98131 | 34070 ft | 441 kts | 328° |
| 2026-05-07 23:51 | 24.34162 | -79.01548 | 34067 ft | 441 kts | 328° |
| 2026-05-07 23:51 | 24.39451 | -79.04963 | 34044 ft | 441 kts | 328° |
| 2026-05-07 23:52 | 24.44750 | -79.08386 | 34038 ft | 441 kts | 328° |
| 2026-05-07 23:52 | 24.50038 | -79.11807 | 34027 ft | 441 kts | 328° |
| 2026-05-07 23:53 | 24.55297 | -79.15211 | 34009 ft | 441 kts | 328° |
| 2026-05-07 23:53 | 24.60602 | -79.18650 | 33980 ft | 442 kts | 328° |
| 2026-05-07 23:54 | 24.65899 | -79.22088 | 33981 ft | 442 kts | 328° |
| 2026-05-07 23:54 | 24.71195 | -79.25526 | 33980 ft | 442 kts | 328° |
| 2026-05-07 23:55 | 24.76492 | -79.28969 | 33988 ft | 442 kts | 328° |
| 2026-05-07 23:55 | 24.81748 | -79.32390 | 33996 ft | 442 kts | 328° |
| 2026-05-07 23:56 | 24.87042 | -79.35837 | 34004 ft | 442 kts | 328° |
| 2026-05-07 23:56 | 24.92331 | -79.39286 | 34046 ft | 441 kts | 328° |
| 2026-05-07 23:57 | 24.96724 | -79.42151 | 34051 ft | 441 kts | 328° |
| 2026-05-07 23:57 | 25.01999 | -79.45599 | 34048 ft | 441 kts | 328° |
| 2026-05-07 23:58 | 25.08137 | -79.49611 | 34057 ft | 440 kts | 328° |
| 2026-05-07 23:58 | 25.13401 | -79.53055 | 34056 ft | 440 kts | 328° |
| 2026-05-07 23:59 | 25.17820 | -79.55952 | 34055 ft | 440 kts | 327° |
| 2026-05-07 23:59 | 25.23052 | -79.59386 | 34055 ft | 440 kts | 327° |
| 2026-05-08 00:00 | 25.28323 | -79.62846 | 34055 ft | 440 kts | 327° |
| 2026-05-08 00:00 | 25.33590 | -79.66309 | 34056 ft | 440 kts | 327° |
| 2026-05-08 00:01 | 25.38856 | -79.69772 | 34058 ft | 440 kts | 327° |
| 2026-05-08 00:01 | 25.44114 | -79.73234 | 34061 ft | 440 kts | 327° |
| 2026-05-08 00:02 | 25.49374 | -79.76705 | 34068 ft | 440 kts | 327° |
| 2026-05-08 00:02 | 25.54637 | -79.80179 | 34068 ft | 440 kts | 327° |
| 2026-05-08 00:03 | 25.59891 | -79.83648 | 34068 ft | 440 kts | 327° |
| 2026-05-08 00:03 | 25.65116 | -79.87104 | 34066 ft | 439 kts | 327° |
| 2026-05-08 00:04 | 25.70391 | -79.90596 | 34055 ft | 439 kts | 327° |
| 2026-05-08 00:04 | 25.75610 | -79.94055 | 34044 ft | 439 kts | 327° |
| 2026-05-08 00:05 | 25.80862 | -79.97538 | 34039 ft | 439 kts | 327° |
| 2026-05-08 00:05 | 25.86105 | -80.01019 | 34037 ft | 439 kts | 327° |
| 2026-05-08 00:06 | 25.91351 | -80.04509 | 34017 ft | 440 kts | 327° |
| 2026-05-08 00:06 | 25.96599 | -80.07999 | 34015 ft | 440 kts | 327° |
| 2026-05-08 00:07 | 26.01840 | -80.11488 | 34026 ft | 439 kts | 327° |
| 2026-05-08 00:07 | 26.07096 | -80.14997 | 34007 ft | 440 kts | 327° |
| 2026-05-08 00:08 | 26.12345 | -80.18500 | 34006 ft | 440 kts | 327° |
| 2026-05-08 00:08 | 26.17770 | -80.21561 | 34002 ft | 442 kts | 335° |
| 2026-05-08 00:09 | 26.23511 | -80.24059 | 34005 ft | 443 kts | 337° |
| 2026-05-08 00:09 | 26.29254 | -80.26524 | 34016 ft | 442 kts | 336° |
| 2026-05-08 00:10 | 26.34969 | -80.29066 | 34028 ft | 442 kts | 335° |
| 2026-05-08 00:10 | 26.40684 | -80.31600 | 34039 ft | 442 kts | 336° |
| 2026-05-08 00:11 | 26.46406 | -80.34114 | 34047 ft | 442 kts | 336° |
| 2026-05-08 00:11 | 26.52128 | -80.36645 | 34061 ft | 442 kts | 335° |
| 2026-05-08 00:12 | 26.57843 | -80.39179 | 34069 ft | 442 kts | 335° |
| 2026-05-08 00:12 | 26.63543 | -80.41701 | 34069 ft | 442 kts | 335° |
| 2026-05-08 00:13 | 26.69254 | -80.44231 | 34067 ft | 442 kts | 335° |
| 2026-05-08 00:13 | 26.74973 | -80.46770 | 34069 ft | 442 kts | 335° |
| 2026-05-08 00:14 | 26.80692 | -80.49280 | 34067 ft | 442 kts | 337° |
| 2026-05-08 00:14 | 26.86571 | -80.51344 | 34060 ft | 443 kts | 340° |
| 2026-05-08 00:15 | 26.92517 | -80.53336 | 34048 ft | 442 kts | 339° |
| 2026-05-08 00:15 | 26.98333 | -80.55462 | 34008 ft | 442 kts | 338° |
| 2026-05-08 00:16 | 27.04184 | -80.57587 | 33974 ft | 442 kts | 339° |
| 2026-05-08 00:16 | 27.10058 | -80.59670 | 33983 ft | 442 kts | 338° |
| 2026-05-08 00:17 | 27.15942 | -80.61781 | 33978 ft | 443 kts | 338° |
| 2026-05-08 00:17 | 27.21782 | -80.63884 | 33979 ft | 445 kts | 338° |
| 2026-05-08 00:18 | 27.27696 | -80.66010 | 33982 ft | 446 kts | 338° |
| 2026-05-08 00:18 | 27.33626 | -80.68143 | 34022 ft | 446 kts | 338° |
| 2026-05-08 00:19 | 27.39544 | -80.70276 | 34072 ft | 446 kts | 338° |
| 2026-05-08 00:19 | 27.45460 | -80.72409 | 34070 ft | 447 kts | 338° |
| 2026-05-08 00:20 | 27.51349 | -80.74537 | 34070 ft | 446 kts | 338° |
| 2026-05-08 00:20 | 27.57255 | -80.76674 | 34061 ft | 446 kts | 338° |
| 2026-05-08 00:21 | 27.63168 | -80.78816 | 34035 ft | 446 kts | 338° |
| 2026-05-08 00:21 | 27.69079 | -80.80960 | 34034 ft | 445 kts | 338° |
| 2026-05-08 00:22 | 27.74986 | -80.83101 | 34051 ft | 445 kts | 338° |
| 2026-05-08 00:22 | 27.80867 | -80.85240 | 34049 ft | 444 kts | 337° |
| 2026-05-08 00:23 | 27.86729 | -80.87374 | 34045 ft | 444 kts | 337° |
| 2026-05-08 00:23 | 27.92607 | -80.89513 | 34041 ft | 443 kts | 337° |
| 2026-05-08 00:24 | 27.98465 | -80.91648 | 34017 ft | 442 kts | 337° |
| 2026-05-08 00:24 | 28.04325 | -80.93787 | 33976 ft | 442 kts | 337° |
| 2026-05-08 00:25 | 28.10154 | -80.95919 | 33952 ft | 442 kts | 337° |
| 2026-05-08 00:25 | 28.16013 | -80.98060 | 33952 ft | 442 kts | 336° |
| 2026-05-08 00:26 | 28.21860 | -81.00203 | 33950 ft | 442 kts | 336° |
| 2026-05-08 00:26 | 28.27681 | -81.02340 | 33965 ft | 442 kts | 336° |
| 2026-05-08 00:27 | 28.33532 | -81.04488 | 33966 ft | 442 kts | 336° |
| 2026-05-08 00:27 | 28.39324 | -81.06774 | 33983 ft | 440 kts | 333° |
| 2026-05-08 00:28 | 28.45183 | -81.08889 | 33988 ft | 450 kts | 346° |
| 2026-05-08 00:28 | 28.48356 | -81.08950 | 34061 ft | 460 kts | 358° |
| 2026-05-08 00:28 | 28.51546 | -81.08585 | 34203 ft | 463 kts | 0° |
| 2026-05-08 00:29 | 28.54736 | -81.08146 | 34332 ft | 462 kts | 0° |
| 2026-05-08 00:29 | 28.57928 | -81.07726 | 34462 ft | 461 kts | 359° |
| 2026-05-08 00:29 | 28.61124 | -81.07369 | 34592 ft | 460 kts | 358° |
| 2026-05-08 00:29 | 28.64276 | -81.07068 | 34721 ft | 459 kts | 358° |
| 2026-05-08 00:30 | 28.67495 | -81.06773 | 34852 ft | 459 kts | 358° |
| 2026-05-08 00:30 | 28.70642 | -81.06461 | 34976 ft | 459 kts | 359° |
| 2026-05-08 00:30 | 28.77000 | -81.05766 | 34995 ft | 459 kts | 359° |
| 2026-05-08 00:31 | 28.83355 | -81.05082 | 34992 ft | 458 kts | 358° |
| 2026-05-08 00:31 | 28.89713 | -81.04423 | 34988 ft | 458 kts | 358° |
| 2026-05-08 00:32 | 28.96069 | -81.03756 | 34982 ft | 458 kts | 359° |
| 2026-05-08 00:32 | 29.02419 | -81.03082 | 34970 ft | 458 kts | 359° |
| 2026-05-08 00:33 | 29.08782 | -81.02412 | 34952 ft | 458 kts | 358° |
| 2026-05-08 00:33 | 29.15139 | -81.01741 | 34979 ft | 458 kts | 359° |
| 2026-05-08 00:34 | 29.21450 | -81.01073 | 34949 ft | 458 kts | 358° |
| 2026-05-08 00:34 | 29.27799 | -81.00401 | 34986 ft | 457 kts | 358° |
| 2026-05-08 00:35 | 29.34125 | -80.99731 | 34997 ft | 456 kts | 358° |
| 2026-05-08 00:35 | 29.40454 | -80.99059 | 34978 ft | 456 kts | 358° |
| 2026-05-08 00:36 | 29.46742 | -80.98392 | 34956 ft | 456 kts | 358° |
| 2026-05-08 00:36 | 29.53072 | -80.97720 | 34937 ft | 456 kts | 358° |
| 2026-05-08 00:37 | 29.59407 | -80.97042 | 34930 ft | 456 kts | 358° |
| 2026-05-08 00:38 | 29.68894 | -80.96032 | 34927 ft | 456 kts | 358° |
| 2026-05-08 00:38 | 29.75190 | -80.95360 | 34926 ft | 456 kts | 358° |
| 2026-05-08 00:39 | 29.81520 | -80.94679 | 34926 ft | 456 kts | 358° |
| 2026-05-08 00:39 | 29.87849 | -80.94002 | 34922 ft | 457 kts | 358° |
| 2026-05-08 00:40 | 29.94180 | -80.93325 | 34922 ft | 457 kts | 358° |
| 2026-05-08 00:40 | 30.00531 | -80.92643 | 34920 ft | 459 kts | 358° |
| 2026-05-08 00:41 | 30.06858 | -80.91963 | 34923 ft | 460 kts | 358° |
| 2026-05-08 00:41 | 30.13251 | -80.91274 | 34957 ft | 460 kts | 358° |
| 2026-05-08 00:42 | 30.19640 | -80.90584 | 35014 ft | 460 kts | 358° |
| 2026-05-08 00:42 | 30.24951 | -80.90011 | 35009 ft | 461 kts | 358° |
| 2026-05-08 00:43 | 30.32371 | -80.89209 | 35008 ft | 460 kts | 358° |
| 2026-05-08 00:43 | 30.37682 | -80.88634 | 34998 ft | 460 kts | 358° |
| 2026-05-08 00:44 | 30.44068 | -80.87942 | 34985 ft | 460 kts | 358° |
| 2026-05-08 00:44 | 30.50464 | -80.87248 | 34971 ft | 461 kts | 358° |
| 2026-05-08 00:45 | 30.56850 | -80.86554 | 34936 ft | 461 kts | 358° |
| 2026-05-08 00:45 | 30.63214 | -80.85861 | 34924 ft | 461 kts | 358° |
| 2026-05-08 00:46 | 30.69611 | -80.85165 | 34940 ft | 461 kts | 358° |
| 2026-05-08 00:46 | 30.76005 | -80.84468 | 34968 ft | 461 kts | 358° |
| 2026-05-08 00:47 | 30.82391 | -80.83769 | 34998 ft | 460 kts | 358° |
| 2026-05-08 00:47 | 30.88756 | -80.83073 | 34994 ft | 460 kts | 358° |
| 2026-05-08 00:48 | 30.95141 | -80.82376 | 34979 ft | 460 kts | 357° |
| 2026-05-08 00:48 | 31.01515 | -80.81678 | 34945 ft | 461 kts | 358° |
| 2026-05-08 00:49 | 31.07910 | -80.80972 | 34923 ft | 461 kts | 358° |
| 2026-05-08 00:49 | 31.14305 | -80.80269 | 34920 ft | 461 kts | 357° |
| 2026-05-08 00:50 | 31.20693 | -80.79566 | 34922 ft | 461 kts | 357° |
| 2026-05-08 00:50 | 31.27047 | -80.78868 | 34923 ft | 461 kts | 357° |
| 2026-05-08 00:51 | 31.33451 | -80.78158 | 34926 ft | 461 kts | 357° |
| 2026-05-08 00:51 | 31.39842 | -80.77452 | 34929 ft | 461 kts | 357° |
| 2026-05-08 00:52 | 31.46230 | -80.76744 | 34919 ft | 461 kts | 357° |
| 2026-05-08 00:52 | 31.52591 | -80.76035 | 34902 ft | 462 kts | 356° |
| 2026-05-08 00:53 | 31.59013 | -80.75329 | 34871 ft | 463 kts | 356° |
| 2026-05-08 00:53 | 31.65441 | -80.74613 | 34881 ft | 463 kts | 356° |
| 2026-05-08 00:54 | 31.71862 | -80.73893 | 34889 ft | 463 kts | 356° |
| 2026-05-08 00:54 | 31.78254 | -80.73184 | 34898 ft | 463 kts | 356° |
| 2026-05-08 00:55 | 31.84672 | -80.72469 | 34903 ft | 463 kts | 356° |
| 2026-05-08 00:55 | 31.91103 | -80.71749 | 34905 ft | 463 kts | 356° |
| 2026-05-08 00:56 | 31.97522 | -80.71029 | 34910 ft | 463 kts | 356° |
| 2026-05-08 00:56 | 32.03937 | -80.70312 | 34918 ft | 463 kts | 356° |
| 2026-05-08 00:57 | 32.10316 | -80.69594 | 34931 ft | 463 kts | 356° |
| 2026-05-08 00:57 | 32.16767 | -80.68868 | 34943 ft | 462 kts | 356° |
| 2026-05-08 00:58 | 32.23129 | -80.68154 | 34949 ft | 462 kts | 356° |
| 2026-05-08 00:58 | 32.29544 | -80.67429 | 34951 ft | 462 kts | 356° |
| 2026-05-08 00:59 | 32.35945 | -80.66705 | 34957 ft | 462 kts | 355° |
| 2026-05-08 00:59 | 32.42362 | -80.65982 | 34959 ft | 462 kts | 355° |
| 2026-05-08 01:00 | 32.48728 | -80.65262 | 34954 ft | 462 kts | 355° |
| 2026-05-08 01:00 | 32.55164 | -80.64532 | 34951 ft | 462 kts | 355° |
| 2026-05-08 01:01 | 32.61529 | -80.63808 | 34936 ft | 462 kts | 355° |
| 2026-05-08 01:01 | 32.67954 | -80.62721 | 34907 ft | 476 kts | 5° |
| 2026-05-08 01:01 | 32.71100 | -80.61336 | 34879 ft | 491 kts | 17° |
| 2026-05-08 01:02 | 32.74055 | -80.59153 | 34849 ft | 508 kts | 30° |
| 2026-05-08 01:02 | 32.79108 | -80.53091 | 34858 ft | 520 kts | 40° |
| 2026-05-08 01:03 | 32.84017 | -80.46773 | 34843 ft | 520 kts | 39° |
| 2026-05-08 01:03 | 32.89054 | -80.40694 | 34834 ft | 520 kts | 37° |
| 2026-05-08 01:04 | 32.94132 | -80.34542 | 34853 ft | 521 kts | 39° |
| 2026-05-08 01:04 | 32.99142 | -80.28283 | 34911 ft | 521 kts | 39° |
| 2026-05-08 01:05 | 33.04171 | -80.22054 | 34924 ft | 521 kts | 38° |
| 2026-05-08 01:05 | 33.09217 | -80.15856 | 34922 ft | 521 kts | 38° |
| 2026-05-08 01:06 | 33.14239 | -80.09621 | 34955 ft | 520 kts | 39° |
| 2026-05-08 01:06 | 33.19240 | -80.03395 | 34949 ft | 518 kts | 39° |
| 2026-05-08 01:07 | 33.24199 | -79.97238 | 34947 ft | 517 kts | 39° |
| 2026-05-08 01:07 | 33.29188 | -79.91028 | 34910 ft | 516 kts | 39° |
| 2026-05-08 01:08 | 33.34151 | -79.84831 | 34870 ft | 516 kts | 39° |
| 2026-05-08 01:08 | 33.39105 | -79.78634 | 34860 ft | 516 kts | 39° |
| 2026-05-08 01:09 | 33.44048 | -79.72449 | 34849 ft | 517 kts | 39° |
| 2026-05-08 01:09 | 33.49016 | -79.66214 | 34854 ft | 517 kts | 39° |
| 2026-05-08 01:10 | 33.53992 | -79.59956 | 34889 ft | 517 kts | 39° |
| 2026-05-08 01:10 | 33.58959 | -79.53704 | 34933 ft | 517 kts | 39° |
| 2026-05-08 01:11 | 33.63888 | -79.47489 | 34918 ft | 517 kts | 39° |
| 2026-05-08 01:11 | 33.68859 | -79.41205 | 34901 ft | 518 kts | 39° |
| 2026-05-08 01:12 | 33.73814 | -79.34932 | 34862 ft | 518 kts | 39° |
| 2026-05-08 01:12 | 33.78774 | -79.28643 | 34839 ft | 519 kts | 39° |
| 2026-05-08 01:13 | 33.83710 | -79.22372 | 34822 ft | 519 kts | 39° |
| 2026-05-08 01:13 | 33.88681 | -79.16048 | 34815 ft | 520 kts | 38° |
| 2026-05-08 01:13 | 33.91337 | -79.13154 | 34816 ft | 507 kts | 27° |
| 2026-05-08 01:14 | 33.94240 | -79.10777 | 34837 ft | 501 kts | 23° |
| 2026-05-08 01:14 | 34.00199 | -79.06412 | 34813 ft | 501 kts | 21° |
| 2026-05-08 01:15 | 34.06139 | -79.01934 | 34813 ft | 506 kts | 24° |
| 2026-05-08 01:15 | 34.11996 | -78.97288 | 34832 ft | 507 kts | 24° |
| 2026-05-08 01:16 | 34.17921 | -78.92691 | 34891 ft | 505 kts | 23° |
| 2026-05-08 01:16 | 34.23867 | -78.88137 | 34919 ft | 506 kts | 23° |
| 2026-05-08 01:17 | 34.29783 | -78.83527 | 34923 ft | 506 kts | 24° |
| 2026-05-08 01:17 | 34.35695 | -78.78911 | 34911 ft | 505 kts | 23° |
| 2026-05-08 01:18 | 34.41604 | -78.74321 | 34897 ft | 505 kts | 23° |
| 2026-05-08 01:18 | 34.47496 | -78.69712 | 34947 ft | 503 kts | 24° |
| 2026-05-08 01:19 | 34.53362 | -78.65088 | 34953 ft | 502 kts | 23° |
| 2026-05-08 01:19 | 34.59180 | -78.60520 | 34923 ft | 501 kts | 23° |
| 2026-05-08 01:20 | 34.65036 | -78.55913 | 34882 ft | 501 kts | 23° |
| 2026-05-08 01:20 | 34.70885 | -78.51295 | 34886 ft | 501 kts | 23° |
| 2026-05-08 01:21 | 34.76734 | -78.46670 | 34895 ft | 501 kts | 23° |
| 2026-05-08 01:21 | 34.82595 | -78.42035 | 34889 ft | 503 kts | 23° |
| 2026-05-08 01:22 | 34.88461 | -78.37384 | 34896 ft | 504 kts | 23° |
| 2026-05-08 01:22 | 34.94332 | -78.32714 | 34947 ft | 504 kts | 23° |
| 2026-05-08 01:23 | 35.00163 | -78.28071 | 34979 ft | 503 kts | 24° |
| 2026-05-08 01:23 | 35.06035 | -78.23395 | 34950 ft | 504 kts | 24° |
| 2026-05-08 01:24 | 35.11919 | -78.18694 | 34944 ft | 504 kts | 24° |
| 2026-05-08 01:24 | 35.17788 | -78.13997 | 34927 ft | 504 kts | 24° |
| 2026-05-08 01:25 | 35.23657 | -78.09293 | 34897 ft | 505 kts | 24° |
| 2026-05-08 01:25 | 35.29542 | -78.04571 | 34890 ft | 506 kts | 24° |
| 2026-05-08 01:26 | 35.35439 | -77.99833 | 34896 ft | 507 kts | 24° |
| 2026-05-08 01:26 | 35.41309 | -77.95103 | 34892 ft | 508 kts | 24° |
| 2026-05-08 01:27 | 35.47220 | -77.90322 | 34942 ft | 508 kts | 24° |
| 2026-05-08 01:27 | 35.53131 | -77.85544 | 34987 ft | 508 kts | 24° |
| 2026-05-08 01:28 | 35.58046 | -77.81570 | 34985 ft | 508 kts | 24° |
| 2026-05-08 01:28 | 35.64911 | -77.75995 | 34989 ft | 508 kts | 25° |
| 2026-05-08 01:29 | 35.69847 | -77.71983 | 34963 ft | 508 kts | 24° |
| 2026-05-08 01:29 | 35.75761 | -77.67171 | 34929 ft | 509 kts | 24° |
| 2026-05-08 01:30 | 35.81636 | -77.62380 | 34910 ft | 509 kts | 25° |
| 2026-05-08 01:30 | 35.87542 | -77.57547 | 34912 ft | 509 kts | 25° |
| 2026-05-08 01:31 | 35.93437 | -77.52730 | 34907 ft | 509 kts | 25° |
| 2026-05-08 01:31 | 35.99362 | -77.47874 | 34912 ft | 510 kts | 25° |
| 2026-05-08 01:32 | 36.05269 | -77.43011 | 34915 ft | 511 kts | 25° |
| 2026-05-08 01:32 | 36.11197 | -77.38138 | 34928 ft | 512 kts | 25° |
| 2026-05-08 01:33 | 36.17110 | -77.33265 | 34922 ft | 513 kts | 25° |
| 2026-05-08 01:33 | 36.23045 | -77.28358 | 34928 ft | 514 kts | 25° |
| 2026-05-08 01:34 | 36.28995 | -77.23437 | 34958 ft | 514 kts | 25° |
| 2026-05-08 01:34 | 36.34940 | -77.18506 | 35011 ft | 513 kts | 26° |
| 2026-05-08 01:35 | 36.40869 | -77.13580 | 35011 ft | 514 kts | 26° |
| 2026-05-08 01:35 | 36.46819 | -77.08621 | 35012 ft | 514 kts | 26° |
| 2026-05-08 01:36 | 36.52757 | -77.03673 | 35011 ft | 514 kts | 26° |
| 2026-05-08 01:36 | 36.58652 | -76.98748 | 34976 ft | 514 kts | 26° |
| 2026-05-08 01:37 | 36.64596 | -76.93771 | 34967 ft | 514 kts | 26° |
| 2026-05-08 01:37 | 36.70535 | -76.88791 | 34948 ft | 514 kts | 26° |
| 2026-05-08 01:38 | 36.76474 | -76.83804 | 34926 ft | 514 kts | 26° |
| 2026-05-08 01:38 | 36.82412 | -76.78800 | 34919 ft | 515 kts | 26° |
| 2026-05-08 01:39 | 36.88314 | -76.73827 | 34923 ft | 515 kts | 26° |
| 2026-05-08 01:39 | 36.94266 | -76.68807 | 34910 ft | 515 kts | 26° |
| 2026-05-08 01:40 | 37.00216 | -76.63766 | 34890 ft | 517 kts | 27° |
| 2026-05-08 01:40 | 37.06148 | -76.58725 | 34893 ft | 519 kts | 27° |
| 2026-05-08 01:41 | 37.12132 | -76.53654 | 34893 ft | 520 kts | 27° |
| 2026-05-08 01:41 | 37.18116 | -76.48551 | 34891 ft | 522 kts | 27° |
| 2026-05-08 01:42 | 37.24123 | -76.43420 | 34929 ft | 522 kts | 27° |
| 2026-05-08 01:42 | 37.30146 | -76.38286 | 34988 ft | 522 kts | 27° |
| 2026-05-08 01:43 | 37.36151 | -76.33132 | 34976 ft | 522 kts | 27° |
| 2026-05-08 01:43 | 37.42160 | -76.27969 | 34936 ft | 523 kts | 27° |
| 2026-05-08 01:44 | 37.48137 | -76.22838 | 34923 ft | 523 kts | 27° |
| 2026-05-08 01:44 | 37.54144 | -76.17669 | 34974 ft | 522 kts | 27° |
| 2026-05-08 01:45 | 37.60127 | -76.12492 | 35003 ft | 521 kts | 27° |
| 2026-05-08 01:45 | 37.66085 | -76.07340 | 35000 ft | 518 kts | 26° |
| 2026-05-08 01:46 | 37.72001 | -76.02207 | 34990 ft | 515 kts | 26° |
| 2026-05-08 01:46 | 37.77892 | -75.97090 | 34986 ft | 511 kts | 26° |
| 2026-05-08 01:47 | 37.83731 | -75.92009 | 34949 ft | 507 kts | 26° |
| 2026-05-08 01:47 | 37.89496 | -75.86976 | 34914 ft | 505 kts | 26° |
| 2026-05-08 01:48 | 37.98194 | -75.79393 | 34902 ft | 505 kts | 27° |
| 2026-05-08 01:48 | 38.03992 | -75.74307 | 34897 ft | 507 kts | 28° |
| 2026-05-08 01:49 | 38.09806 | -75.69197 | 34889 ft | 509 kts | 28° |
| 2026-05-08 01:49 | 38.15615 | -75.64095 | 34893 ft | 511 kts | 28° |
| 2026-05-08 01:50 | 38.21468 | -75.58937 | 34892 ft | 512 kts | 28° |
| 2026-05-08 01:50 | 38.27346 | -75.53746 | 34913 ft | 513 kts | 29° |
| 2026-05-08 01:51 | 38.33176 | -75.48589 | 34972 ft | 513 kts | 29° |
| 2026-05-08 01:51 | 38.39026 | -75.43395 | 34983 ft | 512 kts | 29° |
| 2026-05-08 01:52 | 38.44865 | -75.38206 | 34981 ft | 510 kts | 29° |
| 2026-05-08 01:52 | 38.50686 | -75.33030 | 34951 ft | 508 kts | 29° |
| 2026-05-08 01:53 | 38.56477 | -75.27859 | 34910 ft | 507 kts | 28° |
| 2026-05-08 01:53 | 38.62247 | -75.22699 | 34869 ft | 506 kts | 28° |
| 2026-05-08 01:54 | 38.67979 | -75.17567 | 34865 ft | 503 kts | 28° |